createdAt,value
2023-04-01T00:00:39.853Z,8.26
2023-04-01T00:03:08.420Z,8.19
2023-04-01T00:05:37.095Z,8.13
2023-04-01T00:08:05.989Z,8.11
2023-04-01T00:10:34.706Z,8.08
2023-04-01T00:13:04.688Z,8.06
2023-04-01T00:15:33.400Z,8.02
2023-04-01T00:18:02.338Z,7.98
2023-04-01T00:20:31.158Z,7.98
2023-04-01T00:22:59.581Z,7.92
2023-04-01T00:25:28.009Z,7.81
2023-04-01T00:27:56.430Z,7.77
2023-04-01T00:30:26.488Z,7.78
2023-04-01T00:32:55.096Z,7.77
2023-04-01T00:35:23.658Z,7.79
2023-04-01T00:37:52.159Z,7.78
2023-04-01T00:40:26.983Z,7.78
2023-04-01T00:42:55.591Z,7.79
2023-04-01T00:45:33.770Z,7.83
2023-04-01T00:48:04.493Z,7.85
2023-04-01T00:50:33.456Z,7.91
2023-04-01T00:53:02.845Z,7.92
2023-04-01T00:55:33.739Z,7.89
2023-04-01T00:58:04.327Z,7.89
2023-04-01T01:00:34.632Z,7.92
2023-04-01T01:03:03.851Z,7.94
2023-04-01T01:05:48.657Z,7.95
2023-04-01T01:08:24.395Z,7.95
2023-04-01T01:10:53.702Z,7.96
2023-04-01T01:13:28.144Z,8.00
2023-04-01T01:16:01.382Z,8.01
2023-04-01T01:18:36.642Z,8.01
2023-04-01T01:21:23.428Z,8.02
2023-04-01T01:24:04.438Z,8.06
2023-04-01T01:26:39.748Z,8.06
2023-04-01T01:29:15.323Z,8.05
2023-04-01T01:31:49.079Z,8.02
2023-04-01T01:34:23.284Z,8.02
2023-04-01T01:36:56.827Z,8.03
2023-04-01T01:39:29.082Z,8.07
2023-04-01T01:41:58.539Z,8.11
2023-04-01T01:44:29.215Z,8.08
2023-04-01T01:46:58.873Z,8.04
2023-04-01T01:49:28.668Z,8.03
2023-04-01T01:51:58.811Z,8.05
2023-04-01T01:54:27.320Z,8.02
2023-04-01T01:57:03.376Z,7.99
2023-04-01T01:59:33.368Z,8.00
2023-04-01T02:02:08.649Z,8.05
2023-04-01T02:04:38.398Z,8.07
2023-04-01T02:07:10.273Z,8.09
2023-04-01T02:09:40.572Z,8.07
2023-04-01T02:12:11.554Z,8.04
2023-04-01T02:14:45.926Z,8.05
2023-04-01T02:17:17.732Z,8.06
2023-04-01T02:19:48.934Z,8.09
2023-04-01T02:22:20.501Z,8.12
2023-04-01T02:24:51.066Z,8.15
2023-04-01T02:27:19.613Z,8.17
2023-04-01T02:29:48.222Z,8.25
2023-04-01T02:32:17.220Z,8.33
2023-04-01T02:34:46.011Z,8.34
2023-04-01T02:37:15.610Z,8.37
2023-04-01T02:39:45.480Z,8.38
2023-04-01T02:42:14.023Z,8.40
2023-04-01T02:44:42.791Z,8.44
2023-04-01T02:47:11.322Z,8.41
2023-04-01T02:49:39.913Z,8.38
2023-04-01T02:52:08.470Z,8.38
2023-04-01T02:54:36.848Z,8.36
2023-04-01T02:57:06.868Z,8.34
2023-04-01T02:59:35.440Z,8.29
2023-04-01T03:02:04.021Z,8.26
2023-04-01T03:04:32.405Z,8.25
2023-04-01T03:07:00.907Z,8.15
2023-04-01T03:09:29.429Z,8.07
2023-04-01T03:11:58.473Z,7.99
2023-04-01T03:14:28.517Z,7.93
2023-04-01T03:16:57.258Z,7.88
2023-04-01T03:19:25.680Z,7.79
2023-04-01T03:21:54.746Z,7.74
2023-04-01T03:24:23.211Z,7.72
2023-04-01T03:26:51.724Z,7.72
2023-04-01T03:29:21.169Z,7.73
2023-04-01T03:31:51.084Z,7.67
2023-04-01T03:34:19.599Z,7.55
2023-04-01T03:36:48.033Z,7.53
2023-04-01T03:39:19.827Z,7.52
2023-04-01T03:41:48.722Z,7.42
2023-04-01T03:44:17.168Z,7.31
2023-04-01T03:46:48.752Z,7.24
2023-04-01T03:49:20.950Z,7.19
2023-04-01T03:51:49.612Z,7.12
2023-04-01T03:54:18.213Z,7.14
2023-04-01T03:56:46.771Z,7.07
2023-04-01T03:59:15.373Z,7.01
2023-04-01T04:01:44.022Z,6.90
2023-04-01T04:04:14.372Z,6.79
2023-04-01T04:06:45.305Z,6.83
2023-04-01T04:09:14.104Z,6.86
2023-04-01T04:11:42.521Z,6.87
2023-04-01T04:14:11.036Z,6.86
2023-04-01T04:16:39.585Z,6.83
2023-04-01T04:19:08.658Z,6.79
2023-04-01T04:21:37.080Z,6.82
2023-04-01T04:24:07.576Z,6.85
2023-04-01T04:26:58.773Z,6.82
2023-04-01T04:29:27.254Z,6.77
2023-04-01T04:31:56.127Z,6.80
2023-04-01T04:34:25.352Z,6.84
2023-04-01T04:36:53.743Z,6.84
2023-04-01T04:39:28.581Z,6.85
2023-04-01T04:41:57.925Z,6.85
2023-04-01T04:44:26.437Z,6.83
2023-04-01T04:46:57.195Z,6.86
2023-04-01T04:49:27.053Z,6.87
2023-04-01T04:51:55.802Z,6.89
2023-04-01T04:54:28.547Z,6.93
2023-04-01T04:56:59.840Z,7.00
2023-04-01T04:59:31.415Z,7.01
2023-04-01T05:02:14.262Z,7.06
2023-04-01T05:04:43.194Z,7.15
2023-04-01T05:07:12.760Z,7.21
2023-04-01T05:09:42.711Z,7.24
2023-04-01T05:12:12.882Z,7.31
2023-04-01T05:15:09.355Z,7.44
2023-04-01T05:17:38.256Z,7.47
2023-04-01T05:20:07.172Z,7.55
2023-04-01T05:22:35.628Z,7.64
2023-04-01T05:25:05.739Z,7.78
2023-04-01T05:27:34.212Z,7.88
2023-04-01T05:30:02.885Z,8.03
2023-04-01T05:32:42.363Z,8.25
2023-04-01T05:35:11.074Z,8.40
2023-04-01T05:37:39.522Z,8.47
2023-04-01T05:40:10.694Z,8.64
2023-04-01T05:42:39.192Z,8.77
2023-04-01T05:45:09.901Z,8.79
2023-04-01T05:47:49.310Z,8.80
2023-04-01T05:50:20.527Z,8.81
2023-04-01T05:52:49.003Z,8.80
2023-04-01T05:55:19.618Z,8.80
2023-04-01T05:57:49.693Z,8.83
2023-04-01T06:00:18.468Z,8.83
2023-04-01T06:02:47.735Z,8.87
2023-04-01T06:05:19.414Z,8.81
2023-04-01T06:07:47.951Z,8.77
2023-04-01T06:10:18.572Z,8.74
2023-04-01T06:12:54.172Z,8.76
2023-04-01T06:15:26.824Z,8.73
2023-04-01T06:18:03.701Z,8.73
2023-04-01T06:20:38.350Z,8.73
2023-04-01T06:23:13.536Z,8.72
2023-04-01T06:25:50.680Z,8.71
2023-04-01T06:28:32.443Z,8.78
2023-04-01T06:31:07.401Z,8.91
2023-04-01T06:33:52.491Z,9.10
2023-04-01T06:36:29.412Z,9.28
2023-04-01T06:39:05.144Z,9.48
2023-04-01T06:41:44.563Z,9.68
2023-04-01T06:44:20.577Z,9.85
2023-04-01T06:47:01.375Z,10.01
2023-04-01T06:49:50.653Z,10.16
2023-04-01T06:52:33.888Z,10.28
2023-04-01T06:55:23.305Z,10.41
2023-04-01T06:58:22.038Z,10.55
2023-04-01T07:00:54.396Z,10.68
2023-04-01T07:03:25.956Z,10.86
2023-04-01T07:05:56.339Z,10.99
2023-04-01T07:08:27.014Z,11.10
2023-04-01T07:10:58.022Z,11.16
2023-04-01T07:13:48.552Z,11.21
2023-04-01T07:16:21.252Z,11.25
2023-04-01T07:18:52.748Z,11.28
2023-04-01T07:21:32.107Z,11.29
2023-04-01T07:24:07.649Z,11.33
2023-04-01T07:26:45.839Z,11.38
2023-04-01T07:29:21.880Z,11.41
2023-04-01T07:32:05.968Z,11.45
2023-04-01T07:34:40.550Z,11.51
2023-04-01T07:37:13.771Z,11.59
2023-04-01T07:39:48.415Z,11.59
2023-04-01T07:42:28.465Z,11.63
2023-04-01T07:45:03.287Z,11.67
2023-04-01T07:47:37.275Z,11.79
2023-04-01T07:50:11.438Z,11.92
2023-04-01T07:52:45.317Z,12.00
2023-04-01T07:55:25.879Z,12.09
2023-04-01T07:58:00.130Z,12.14
2023-04-01T08:00:34.563Z,12.22
2023-04-01T08:03:22.987Z,12.26
2023-04-01T08:05:57.513Z,12.31
2023-04-01T08:08:34.079Z,12.31
2023-04-01T08:11:24.663Z,12.30
2023-04-01T08:14:10.595Z,12.33
2023-04-01T08:16:58.096Z,12.35
2023-04-01T08:19:41.147Z,12.45
2023-04-01T08:22:12.792Z,12.64
2023-04-01T08:24:47.634Z,12.84
2023-04-01T08:27:27.558Z,13.11
2023-04-01T08:30:00.886Z,13.30
2023-04-01T08:32:35.324Z,13.40
2023-04-01T08:35:09.784Z,13.41
2023-04-01T08:37:43.540Z,13.35
2023-04-01T08:40:35.532Z,13.30
2023-04-01T08:43:10.788Z,13.27
2023-04-01T08:45:49.855Z,13.28
2023-04-01T08:48:30.713Z,13.34
2023-04-01T08:51:11.209Z,13.30
2023-04-01T08:54:01.886Z,13.33
2023-04-01T08:56:36.417Z,13.31
2023-04-01T08:59:19.598Z,13.26
2023-04-01T09:01:58.961Z,13.26
2023-04-01T09:04:49.439Z,13.24
2023-04-01T09:07:28.018Z,13.31
2023-04-01T09:10:17.559Z,13.38
2023-04-01T09:12:56.852Z,13.45
2023-04-01T09:15:38.525Z,13.48
2023-04-01T09:18:15.866Z,13.48
2023-04-01T09:20:55.037Z,13.46
2023-04-01T09:23:36.493Z,13.35
2023-04-01T09:26:12.877Z,13.38
2023-04-01T09:28:45.683Z,13.34
2023-04-01T09:31:23.595Z,13.38
2023-04-01T09:34:13.414Z,13.40
2023-04-01T09:37:03.231Z,13.47
2023-04-01T09:39:39.978Z,13.61
2023-04-01T09:42:29.509Z,13.69
2023-04-01T09:45:11.293Z,13.76
2023-04-01T09:47:48.418Z,13.95
2023-04-01T09:50:31.493Z,14.09
2023-04-01T09:53:06.992Z,14.09
2023-04-01T09:58:43.599Z,14.31
2023-04-01T10:01:44.873Z,14.33
2023-04-01T10:04:34.119Z,14.21
2023-04-01T10:07:13.557Z,14.27
2023-04-01T10:09:53.283Z,14.30
2023-04-01T10:12:34.947Z,14.34
2023-04-01T10:15:24.351Z,14.24
2023-04-01T10:18:06.340Z,14.13
2023-04-01T10:20:47.820Z,14.05
2023-04-01T10:23:27.101Z,14.03
2023-04-01T10:26:11.117Z,14.05
2023-04-01T10:28:49.087Z,14.05
2023-04-01T10:31:58.850Z,13.96
2023-04-01T10:34:42.337Z,13.94
2023-04-01T10:37:18.338Z,13.97
2023-04-01T10:40:04.713Z,14.02
2023-04-01T10:43:05.426Z,14.17
2023-04-01T10:46:01.847Z,14.28
2023-04-01T10:48:48.036Z,14.33
2023-04-01T10:51:23.007Z,14.36
2023-04-01T10:54:01.596Z,14.43
2023-04-01T10:56:39.816Z,14.47
2023-04-01T10:59:29.929Z,14.49
2023-04-01T11:02:39.194Z,14.50
2023-04-01T11:05:28.896Z,14.56
2023-04-01T11:08:21.091Z,14.62
2023-04-01T11:11:01.652Z,14.67
2023-04-01T11:13:43.092Z,14.66
2023-04-01T11:16:21.690Z,14.64
2023-04-01T11:19:07.990Z,14.58
2023-04-01T11:21:50.423Z,14.55
2023-04-01T11:24:33.498Z,14.53
2023-04-01T11:27:22.595Z,14.45
2023-04-01T11:30:04.424Z,14.33
2023-04-01T11:32:46.605Z,14.28
2023-04-01T11:35:28.852Z,14.24
2023-04-01T11:38:01.500Z,14.19
2023-04-01T11:41:00.766Z,14.23
2023-04-01T11:43:42.638Z,14.30
2023-04-01T11:46:26.346Z,14.33
2023-04-01T11:49:03.254Z,14.38
2023-04-01T11:51:47.544Z,14.40
2023-04-01T11:54:25.513Z,14.40
2023-04-01T11:57:04.251Z,14.53
2023-04-01T11:59:44.685Z,14.66
2023-04-01T12:02:21.285Z,14.69
2023-04-01T12:04:58.330Z,14.71
2023-04-01T12:07:38.646Z,14.73
2023-04-01T12:10:19.261Z,14.62
2023-04-01T12:13:01.200Z,14.45
2023-04-01T12:15:35.401Z,14.36
2023-04-01T12:18:10.578Z,14.24
2023-04-01T12:20:45.516Z,14.19
2023-04-01T12:23:22.575Z,14.16
2023-04-01T12:26:01.887Z,14.06
2023-04-01T12:28:39.723Z,14.02
2023-04-01T12:31:16.659Z,13.98
2023-04-01T12:33:55.310Z,13.88
2023-04-01T12:36:34.538Z,13.77
2023-04-01T12:39:21.632Z,13.57
2023-04-01T12:41:56.025Z,13.35
2023-04-01T12:44:36.682Z,13.27
2023-04-01T12:47:15.726Z,13.26
2023-04-01T12:49:57.937Z,13.17
2023-04-01T12:52:37.679Z,12.98
2023-04-01T12:55:17.883Z,12.77
2023-04-01T12:57:57.350Z,12.67
2023-04-01T13:00:34.618Z,12.55
2023-04-01T13:03:09.645Z,12.42
2023-04-01T13:05:55.977Z,12.41
2023-04-01T13:08:34.285Z,12.41
2023-04-01T13:11:11.700Z,12.37
2023-04-01T13:13:51.564Z,12.38
2023-04-01T13:16:22.761Z,12.43
2023-04-01T13:18:58.163Z,12.47
2023-04-01T13:21:33.197Z,12.46
2023-04-01T13:24:06.064Z,12.45
2023-04-01T13:26:39.332Z,12.48
2023-04-01T13:29:12.624Z,12.47
2023-04-01T13:31:50.298Z,12.54
2023-04-01T13:34:31.366Z,12.56
2023-04-01T13:37:07.152Z,12.59
2023-04-01T13:39:46.443Z,12.66
2023-04-01T13:42:26.154Z,12.75
2023-04-01T13:44:59.031Z,12.85
2023-04-01T13:47:45.517Z,12.91
2023-04-01T13:50:24.835Z,12.99
2023-04-01T13:53:09.334Z,13.07
2023-04-01T13:55:51.270Z,13.22
2023-04-01T13:58:26.865Z,13.35
2023-04-01T14:01:02.652Z,13.43
2023-04-01T14:03:34.767Z,13.51
2023-04-01T14:06:09.627Z,13.54
2023-04-01T14:08:45.509Z,13.58
2023-04-01T14:11:17.865Z,13.66
2023-04-01T14:13:52.896Z,13.74
2023-04-01T14:16:32.132Z,13.74
2023-04-01T14:19:05.681Z,13.78
2023-04-01T14:21:39.098Z,13.83
2023-04-01T14:24:25.365Z,13.84
2023-04-01T14:27:05.384Z,13.85
2023-04-01T14:29:39.371Z,13.84
2023-04-01T14:32:13.666Z,13.85
2023-04-01T14:34:48.690Z,13.85
2023-04-01T14:37:28.217Z,13.76
2023-04-01T14:40:08.542Z,13.67
2023-04-01T14:42:49.165Z,13.62
2023-04-01T14:45:35.863Z,13.61
2023-04-01T14:48:16.443Z,13.60
2023-04-01T14:50:46.935Z,13.56
2023-04-01T14:53:21.240Z,13.55
2023-04-01T14:55:52.451Z,13.54
2023-04-01T14:58:23.036Z,13.57
2023-04-01T15:01:00.698Z,13.56
2023-04-01T15:03:35.285Z,13.56
2023-04-01T15:06:16.009Z,13.56
2023-04-01T15:08:51.695Z,13.57
2023-04-01T15:11:29.583Z,13.59
2023-04-01T15:14:08.962Z,13.59
2023-04-01T15:16:43.086Z,13.59
2023-04-01T15:19:18.193Z,13.60
2023-04-01T15:21:58.127Z,13.61
2023-04-01T15:24:28.345Z,13.60
2023-04-01T15:27:13.777Z,13.62
2023-04-01T15:29:59.056Z,13.69
2023-04-01T15:32:32.701Z,13.91
2023-04-01T15:35:09.358Z,14.01
2023-04-01T15:37:41.292Z,14.04
2023-04-01T15:40:18.243Z,14.03
2023-04-01T15:42:54.048Z,14.07
2023-04-01T15:45:36.545Z,14.07
2023-04-01T15:48:14.744Z,14.06
2023-04-01T15:50:54.468Z,14.03
2023-04-01T15:53:33.835Z,14.05
2023-04-01T15:56:09.587Z,14.03
2023-04-01T15:58:46.100Z,13.96
2023-04-01T16:01:21.921Z,13.85
2023-04-01T16:03:57.028Z,13.75
2023-04-01T16:06:41.813Z,13.68
2023-04-01T16:09:20.171Z,13.66
2023-04-01T16:11:56.160Z,13.67
2023-04-01T16:14:31.623Z,13.65
2023-04-01T16:17:06.222Z,13.66
2023-04-01T16:19:40.288Z,13.68
2023-04-01T16:22:15.232Z,13.71
2023-04-01T16:24:46.902Z,13.74
2023-04-01T16:27:19.311Z,13.75
2023-04-01T16:29:51.058Z,13.75
2023-04-01T16:32:29.481Z,13.74
2023-04-01T16:35:04.434Z,13.72
2023-04-01T16:37:39.053Z,13.61
2023-04-01T16:40:15.293Z,13.53
2023-04-01T16:42:49.093Z,13.46
